sensor_id;sensor_type;location;lat;lon;timestamp;pressure;altitude;pressure_sealevel;temperature;humidity
72961;BME280;61141;46.204;19.774;2023-07-31T00:11:15;100109.13;;;19.01;100.00
72961;BME280;61141;46.204;19.774;2023-07-31T00:14:18;100089.41;;;18.80;100.00
72961;BME280;61141;46.204;19.774;2023-07-31T00:17:21;100082.53;;;18.68;100.00
72961;BME280;61141;46.204;19.774;2023-07-31T00:20:24;100111.63;;;18.96;100.00
72961;BME280;61141;46.204;19.774;2023-07-31T00:23:27;100106.44;;;18.98;100.00
72961;BME280;61141;46.204;19.774;2023-07-31T00:26:30;100116.53;;;19.08;100.00
72961;BME280;61141;46.204;19.774;2023-07-31T00:29:33;100118.84;;;19.09;100.00
72961;BME280;61141;46.204;19.774;2023-07-31T00:32:36;100099.59;;;19.02;100.00
72961;BME280;61141;46.204;19.774;2023-07-31T00:35:39;100115.41;;;19.05;100.00
72961;BME280;61141;46.204;19.774;2023-07-31T00:38:42;100094.13;;;18.99;100.00
72961;BME280;61141;46.204;19.774;2023-07-31T00:41:45;100112.44;;;19.12;100.00
72961;BME280;61141;46.204;19.774;2023-07-31T00:44:48;100093.59;;;18.88;100.00
72961;BME280;61141;46.204;19.774;2023-07-31T00:47:50;100105.41;;;19.08;100.00
72961;BME280;61141;46.204;19.774;2023-07-31T00:50:54;100099.88;;;19.08;100.00
72961;BME280;61141;46.204;19.774;2023-07-31T00:53:57;100085.00;;;18.98;100.00
72961;BME280;61141;46.204;19.774;2023-07-31T00:57:01;100091.53;;;19.08;100.00
72961;BME280;61141;46.204;19.774;2023-07-31T01:00:04;100071.72;;;18.90;100.00
72961;BME280;61141;46.204;19.774;2023-07-31T01:03:08;100088.63;;;18.95;100.00
72961;BME280;61141;46.204;19.774;2023-07-31T01:09:49;100091.59;;;18.88;100.00
72961;BME280;61141;46.204;19.774;2023-07-31T01:12:56;100067.72;;;18.74;100.00
72961;BME280;61141;46.204;19.774;2023-07-31T01:15:59;100070.06;;;18.76;100.00
72961;BME280;61141;46.204;19.774;2023-07-31T01:19:02;100081.00;;;18.83;100.00
72961;BME280;61141;46.204;19.774;2023-07-31T01:26:09;100090.63;;;18.78;100.00
72961;BME280;61141;46.204;19.774;2023-07-31T01:29:23;100093.84;;;18.77;100.00
72961;BME280;61141;46.204;19.774;2023-07-31T01:32:28;100089.47;;;18.76;100.00
72961;BME280;61141;46.204;19.774;2023-07-31T01:35:34;100064.28;;;18.51;100.00
72961;BME280;61141;46.204;19.774;2023-07-31T01:38:37;100088.88;;;18.68;100.00
72961;BME280;61141;46.204;19.774;2023-07-31T01:41:40;100082.53;;;18.68;100.00
72961;BME280;61141;46.204;19.774;2023-07-31T01:44:43;100079.81;;;18.64;100.00
72961;BME280;61141;46.204;19.774;2023-07-31T01:47:46;100075.00;;;18.68;100.00
72961;BME280;61141;46.204;19.774;2023-07-31T01:50:49;100077.06;;;18.64;100.00
72961;BME280;61141;46.204;19.774;2023-07-31T01:53:52;100060.06;;;18.43;100.00
72961;BME280;61141;46.204;19.774;2023-07-31T01:56:55;100081.13;;;18.60;100.00
72961;BME280;61141;46.204;19.774;2023-07-31T01:59:58;100077.91;;;18.61;100.00
72961;BME280;61141;46.204;19.774;2023-07-31T02:03:01;100072.81;;;18.40;100.00
72961;BME280;61141;46.204;19.774;2023-07-31T02:06:04;100072.88;;;18.37;100.00
72961;BME280;61141;46.204;19.774;2023-07-31T02:09:07;100086.16;;;18.45;100.00
72961;BME280;61141;46.204;19.774;2023-07-31T02:12:10;100107.22;;;18.43;100.00
72961;BME280;61141;46.204;19.774;2023-07-31T02:15:12;100110.94;;;18.56;100.00
72961;BME280;61141;46.204;19.774;2023-07-31T02:18:16;100082.25;;;18.43;100.00
72961;BME280;61141;46.204;19.774;2023-07-31T02:21:19;100115.78;;;18.52;100.00
72961;BME280;61141;46.204;19.774;2023-07-31T02:24:22;100098.41;;;18.48;100.00
72961;BME280;61141;46.204;19.774;2023-07-31T02:27:25;100121.00;;;18.50;100.00
72961;BME280;61141;46.204;19.774;2023-07-31T02:30:30;100115.88;;;18.45;100.00
72961;BME280;61141;46.204;19.774;2023-07-31T02:33:33;100116.47;;;18.56;100.00
72961;BME280;61141;46.204;19.774;2023-07-31T02:36:36;100085.09;;;18.39;100.00
72961;BME280;61141;46.204;19.774;2023-07-31T02:39:39;100110.78;;;18.63;100.00
72961;BME280;61141;46.204;19.774;2023-07-31T02:42:43;100111.22;;;18.61;100.00
72961;BME280;61141;46.204;19.774;2023-07-31T02:45:51;100090.50;;;18.46;100.00
72961;BME280;61141;46.204;19.774;2023-07-31T02:48:54;100109.66;;;18.60;100.00
72961;BME280;61141;46.204;19.774;2023-07-31T02:51:57;100094.72;;;18.54;100.00
72961;BME280;61141;46.204;19.774;2023-07-31T02:55:00;100098.91;;;18.62;100.00
72961;BME280;61141;46.204;19.774;2023-07-31T02:58:03;100103.25;;;18.63;100.00
72961;BME280;61141;46.204;19.774;2023-07-31T03:01:06;100100.56;;;18.60;100.00
72961;BME280;61141;46.204;19.774;2023-07-31T03:04:09;100092.50;;;18.65;100.00
72961;BME280;61141;46.204;19.774;2023-07-31T03:07:12;100095.72;;;18.64;100.00
72961;BME280;61141;46.204;19.774;2023-07-31T03:10:14;100102.75;;;18.68;100.00
72961;BME280;61141;46.204;19.774;2023-07-31T03:13:18;100112.72;;;18.66;100.00
72961;BME280;61141;46.204;19.774;2023-07-31T03:16:20;100113.97;;;18.61;100.00
72961;BME280;61141;46.204;19.774;2023-07-31T03:19:23;100123.00;;;18.46;100.00
72961;BME280;61141;46.204;19.774;2023-07-31T03:22:26;100119.25;;;18.56;100.00
72961;BME280;61141;46.204;19.774;2023-07-31T03:25:29;100126.72;;;18.59;100.00
72961;BME280;61141;46.204;19.774;2023-07-31T03:28:32;100126.59;;;18.66;100.00
72961;BME280;61141;46.204;19.774;2023-07-31T03:31:35;100133.00;;;18.63;100.00
72961;BME280;61141;46.204;19.774;2023-07-31T03:34:38;100152.44;;;18.40;100.00
72961;BME280;61141;46.204;19.774;2023-07-31T03:37:41;100142.63;;;18.58;100.00
72961;BME280;61141;46.204;19.774;2023-07-31T03:40:44;100149.06;;;18.52;100.00
72961;BME280;61141;46.204;19.774;2023-07-31T03:43:49;100151.22;;;18.64;100.00
72961;BME280;61141;46.204;19.774;2023-07-31T03:46:54;100135.87;;;18.75;100.00
72961;BME280;61141;46.204;19.774;2023-07-31T03:49:57;100143.56;;;18.68;100.00
72961;BME280;61141;46.204;19.774;2023-07-31T03:53:00;100146.22;;;18.75;100.00
72961;BME280;61141;46.204;19.774;2023-07-31T03:56:03;100154.16;;;18.73;100.00
72961;BME280;61141;46.204;19.774;2023-07-31T03:59:06;100155.59;;;18.81;100.00
72961;BME280;61141;46.204;19.774;2023-07-31T04:02:09;100152.13;;;18.77;100.00
72961;BME280;61141;46.204;19.774;2023-07-31T04:05:12;100147.91;;;18.89;100.00
72961;BME280;61141;46.204;19.774;2023-07-31T04:08:14;100127.81;;;18.81;100.00
72961;BME280;61141;46.204;19.774;2023-07-31T04:11:17;100144.78;;;19.03;100.00
72961;BME280;61141;46.204;19.774;2023-07-31T04:14:20;100156.59;;;19.07;100.00
72961;BME280;61141;46.204;19.774;2023-07-31T04:17:23;100157.59;;;19.16;100.00
72961;BME280;61141;46.204;19.774;2023-07-31T04:20:26;100149.41;;;19.09;100.00
72961;BME280;61141;46.204;19.774;2023-07-31T04:23:29;100174.16;;;19.20;100.00
72961;BME280;61141;46.204;19.774;2023-07-31T04:26:32;100179.44;;;19.30;100.00
72961;BME280;61141;46.204;19.774;2023-07-31T04:29:36;100185.06;;;19.47;100.00
72961;BME280;61141;46.204;19.774;2023-07-31T04:32:39;100184.56;;;19.52;100.00
72961;BME280;61141;46.204;19.774;2023-07-31T04:35:49;100182.13;;;19.54;100.00
72961;BME280;61141;46.204;19.774;2023-07-31T04:38:54;100193.94;;;19.58;100.00
72961;BME280;61141;46.204;19.774;2023-07-31T04:41:58;100188.00;;;19.72;100.00
72961;BME280;61141;46.204;19.774;2023-07-31T04:45:01;100194.69;;;19.90;100.00
72961;BME280;61141;46.204;19.774;2023-07-31T04:48:04;100182.97;;;19.83;100.00
72961;BME280;61141;46.204;19.774;2023-07-31T04:51:07;100182.56;;;20.13;97.74
72961;BME280;61141;46.204;19.774;2023-07-31T04:54:10;100188.53;;;19.99;97.36
72961;BME280;61141;46.204;19.774;2023-07-31T04:57:14;100184.81;;;20.34;96.15
72961;BME280;61141;46.204;19.774;2023-07-31T05:00:17;100180.94;;;20.44;96.34
72961;BME280;61141;46.204;19.774;2023-07-31T05:03:21;100183.25;;;20.75;93.73
72961;BME280;61141;46.204;19.774;2023-07-31T05:06:26;100182.31;;;20.52;93.62
72961;BME280;61141;46.204;19.774;2023-07-31T05:09:29;100180.88;;;20.61;93.39
72961;BME280;61141;46.204;19.774;2023-07-31T05:12:32;100176.34;;;20.67;92.14
72961;BME280;61141;46.204;19.774;2023-07-31T05:15:34;100186.91;;;20.72;91.51
72961;BME280;61141;46.204;19.774;2023-07-31T05:18:37;100186.75;;;20.91;90.12
72961;BME280;61141;46.204;19.774;2023-07-31T05:21:40;100182.72;;;20.80;90.45
72961;BME280;61141;46.204;19.774;2023-07-31T05:24:43;100185.16;;;20.78;89.93
72961;BME280;61141;46.204;19.774;2023-07-31T05:27:46;100116.72;;;20.10;90.11
72961;BME280;61141;46.204;19.774;2023-07-31T05:30:50;100168.94;;;20.47;90.28
72961;BME280;61141;46.204;19.774;2023-07-31T05:34:01;100140.22;;;20.22;89.79
72961;BME280;61141;46.204;19.774;2023-07-31T05:37:05;100181.41;;;20.97;87.50
72961;BME280;61141;46.204;19.774;2023-07-31T05:40:09;100184.19;;;20.97;87.55
72961;BME280;61141;46.204;19.774;2023-07-31T05:43:13;100193.88;;;21.05;86.97
72961;BME280;61141;46.204;19.774;2023-07-31T05:46:16;100174.31;;;21.08;86.36
72961;BME280;61141;46.204;19.774;2023-07-31T05:49:20;100176.34;;;21.21;85.70
72961;BME280;61141;46.204;19.774;2023-07-31T05:52:44;100200.19;;;21.47;85.45
72961;BME280;61141;46.204;19.774;2023-07-31T05:55:47;100159.81;;;21.39;83.63
72961;BME280;61141;46.204;19.774;2023-07-31T05:58:50;100199.81;;;21.95;81.37
72961;BME280;61141;46.204;19.774;2023-07-31T06:01:53;100196.66;;;22.06;80.51
72961;BME280;61141;46.204;19.774;2023-07-31T06:04:56;100202.72;;;21.92;80.54
72961;BME280;61141;46.204;19.774;2023-07-31T06:07:59;100202.25;;;21.81;82.01
72961;BME280;61141;46.204;19.774;2023-07-31T06:11:02;100211.50;;;22.03;81.44
72961;BME280;61141;46.204;19.774;2023-07-31T06:14:05;100223.19;;;22.10;81.15
72961;BME280;61141;46.204;19.774;2023-07-31T06:17:08;100213.44;;;22.28;79.55
72961;BME280;61141;46.204;19.774;2023-07-31T06:20:10;100220.03;;;22.55;79.02
72961;BME280;61141;46.204;19.774;2023-07-31T06:23:14;100217.59;;;22.23;78.42
72961;BME280;61141;46.204;19.774;2023-07-31T06:26:16;100215.78;;;22.51;79.20
72961;BME280;61141;46.204;19.774;2023-07-31T06:29:19;100212.97;;;22.51;78.96
72961;BME280;61141;46.204;19.774;2023-07-31T06:32:22;100213.75;;;22.64;77.36
72961;BME280;61141;46.204;19.774;2023-07-31T06:35:25;100215.81;;;22.94;76.65
72961;BME280;61141;46.204;19.774;2023-07-31T06:38:28;100221.62;;;22.44;77.40
72961;BME280;61141;46.204;19.774;2023-07-31T06:41:31;100224.63;;;22.93;76.25
72961;BME280;61141;46.204;19.774;2023-07-31T06:44:36;100225.94;;;23.01;74.54
72961;BME280;61141;46.204;19.774;2023-07-31T06:47:39;100228.16;;;22.84;74.73
72961;BME280;61141;46.204;19.774;2023-07-31T06:50:42;100236.63;;;22.71;75.32
72961;BME280;61141;46.204;19.774;2023-07-31T06:53:45;100245.19;;;22.99;74.38
72961;BME280;61141;46.204;19.774;2023-07-31T06:56:48;100241.41;;;22.93;74.00
72961;BME280;61141;46.204;19.774;2023-07-31T06:59:51;100243.28;;;23.48;72.81
72961;BME280;61141;46.204;19.774;2023-07-31T07:02:53;100246.75;;;23.61;71.45
72961;BME280;61141;46.204;19.774;2023-07-31T07:05:57;100245.06;;;23.64;70.43
72961;BME280;61141;46.204;19.774;2023-07-31T07:08:59;100245.84;;;23.64;73.80
72961;BME280;61141;46.204;19.774;2023-07-31T07:12:02;100251.72;;;23.57;71.18
72961;BME280;61141;46.204;19.774;2023-07-31T07:15:06;100242.00;;;23.40;68.24
72961;BME280;61141;46.204;19.774;2023-07-31T07:18:09;100249.75;;;23.36;65.23
72961;BME280;61141;46.204;19.774;2023-07-31T07:21:13;100247.91;;;23.42;63.49
72961;BME280;61141;46.204;19.774;2023-07-31T07:24:18;100231.56;;;23.71;63.67
72961;BME280;61141;46.204;19.774;2023-07-31T07:27:21;100234.06;;;23.78;64.02
72961;BME280;61141;46.204;19.774;2023-07-31T07:30:24;100227.75;;;23.96;59.94
72961;BME280;61141;46.204;19.774;2023-07-31T07:33:28;100245.16;;;24.00;59.51
72961;BME280;61141;46.204;19.774;2023-07-31T07:36:31;100256.44;;;23.69;60.10
72961;BME280;61141;46.204;19.774;2023-07-31T07:39:35;100252.16;;;23.25;59.94
72961;BME280;61141;46.204;19.774;2023-07-31T07:42:38;100244.63;;;23.13;61.34
72961;BME280;61141;46.204;19.774;2023-07-31T07:45:40;100249.94;;;23.20;61.79
72961;BME280;61141;46.204;19.774;2023-07-31T07:48:43;100251.19;;;23.19;61.25
72961;BME280;61141;46.204;19.774;2023-07-31T07:51:47;100240.37;;;23.30;59.69
72961;BME280;61141;46.204;19.774;2023-07-31T07:54:50;100243.78;;;23.25;58.92
72961;BME280;61141;46.204;19.774;2023-07-31T07:57:53;100243.50;;;23.32;59.23
72961;BME280;61141;46.204;19.774;2023-07-31T08:00:56;100257.59;;;23.28;59.33
72961;BME280;61141;46.204;19.774;2023-07-31T08:03:59;100249.12;;;23.72;58.01
72961;BME280;61141;46.204;19.774;2023-07-31T08:07:02;100259.16;;;23.91;58.43
72961;BME280;61141;46.204;19.774;2023-07-31T08:10:06;100254.50;;;23.97;57.87
72961;BME280;61141;46.204;19.774;2023-07-31T08:13:12;100259.06;;;23.73;56.91
72961;BME280;61141;46.204;19.774;2023-07-31T08:16:15;100256.97;;;23.86;56.35
72961;BME280;61141;46.204;19.774;2023-07-31T08:19:18;100254.50;;;24.06;55.68
72961;BME280;61141;46.204;19.774;2023-07-31T08:22:21;100248.50;;;24.35;55.38
72961;BME280;61141;46.204;19.774;2023-07-31T08:25:24;100251.91;;;24.75;54.45
72961;BME280;61141;46.204;19.774;2023-07-31T08:28:27;100242.59;;;24.87;54.03
72961;BME280;61141;46.204;19.774;2023-07-31T08:31:30;100245.09;;;24.76;52.63
72961;BME280;61141;46.204;19.774;2023-07-31T08:34:33;100244.44;;;25.08;52.59
72961;BME280;61141;46.204;19.774;2023-07-31T08:37:37;100247.72;;;24.71;48.77
72961;BME280;61141;46.204;19.774;2023-07-31T08:40:40;100250.31;;;25.20;49.70
72961;BME280;61141;46.204;19.774;2023-07-31T08:43:46;100251.91;;;25.11;48.93
72961;BME280;61141;46.204;19.774;2023-07-31T08:46:49;100236.84;;;25.42;49.18
72961;BME280;61141;46.204;19.774;2023-07-31T08:49:52;100255.75;;;25.32;47.10
72961;BME280;61141;46.204;19.774;2023-07-31T08:52:55;100229.72;;;25.32;45.35
72961;BME280;61141;46.204;19.774;2023-07-31T08:56:00;100258.94;;;25.58;45.56
72961;BME280;61141;46.204;19.774;2023-07-31T08:59:04;100259.09;;;25.03;44.01
72961;BME280;61141;46.204;19.774;2023-07-31T09:02:08;100252.25;;;24.95;44.09
72961;BME280;61141;46.204;19.774;2023-07-31T09:05:12;100253.84;;;25.47;43.45
72961;BME280;61141;46.204;19.774;2023-07-31T09:08:18;100246.12;;;25.24;43.38
72961;BME280;61141;46.204;19.774;2023-07-31T09:11:23;100242.56;;;25.65;44.44
72961;BME280;61141;46.204;19.774;2023-07-31T09:14:26;100252.03;;;26.01;42.47
72961;BME280;61141;46.204;19.774;2023-07-31T09:17:34;100238.41;;;25.85;43.28
72961;BME280;61141;46.204;19.774;2023-07-31T09:20:38;100248.81;;;26.17;42.29
72961;BME280;61141;46.204;19.774;2023-07-31T09:23:43;100257.81;;;26.45;41.10
72961;BME280;61141;46.204;19.774;2023-07-31T09:26:46;100250.50;;;26.23;42.26
72961;BME280;61141;46.204;19.774;2023-07-31T09:29:58;100243.22;;;26.08;40.97
72961;BME280;61141;46.204;19.774;2023-07-31T09:33:03;100252.69;;;26.19;40.63
72961;BME280;61141;46.204;19.774;2023-07-31T09:36:06;100236.13;;;26.21;41.03
72961;BME280;61141;46.204;19.774;2023-07-31T09:39:10;100233.66;;;25.91;40.04
72961;BME280;61141;46.204;19.774;2023-07-31T09:42:13;100225.00;;;26.51;39.64
72961;BME280;61141;46.204;19.774;2023-07-31T09:45:18;100253.59;;;26.25;37.77
72961;BME280;61141;46.204;19.774;2023-07-31T09:48:30;100222.31;;;26.33;38.01
72961;BME280;61141;46.204;19.774;2023-07-31T09:51:33;100215.69;;;26.21;38.95
72961;BME280;61141;46.204;19.774;2023-07-31T09:54:41;100222.91;;;26.75;37.91
72961;BME280;61141;46.204;19.774;2023-07-31T09:57:48;100223.16;;;26.48;40.34
72961;BME280;61141;46.204;19.774;2023-07-31T10:00:51;100219.16;;;26.78;38.34
72961;BME280;61141;46.204;19.774;2023-07-31T10:03:55;100229.16;;;26.55;37.73
72961;BME280;61141;46.204;19.774;2023-07-31T10:07:00;100218.84;;;26.38;37.92
72961;BME280;61141;46.204;19.774;2023-07-31T10:10:07;100225.56;;;26.55;37.57
72961;BME280;61141;46.204;19.774;2023-07-31T10:13:11;100216.03;;;26.76;38.30
72961;BME280;61141;46.204;19.774;2023-07-31T10:16:15;100200.97;;;26.50;38.04
72961;BME280;61141;46.204;19.774;2023-07-31T10:19:20;100206.25;;;27.15;39.20
72961;BME280;61141;46.204;19.774;2023-07-31T10:22:23;100212.81;;;26.68;37.57
72961;BME280;61141;46.204;19.774;2023-07-31T10:25:26;100203.25;;;26.90;38.71
72961;BME280;61141;46.204;19.774;2023-07-31T10:28:31;100189.63;;;27.32;36.81
72961;BME280;61141;46.204;19.774;2023-07-31T10:31:35;100200.41;;;27.33;35.96
72961;BME280;61141;46.204;19.774;2023-07-31T10:34:39;100210.16;;;27.03;37.92
72961;BME280;61141;46.204;19.774;2023-07-31T10:37:43;100188.78;;;27.40;37.61
72961;BME280;61141;46.204;19.774;2023-07-31T10:40:46;100198.28;;;27.28;37.70
72961;BME280;61141;46.204;19.774;2023-07-31T10:43:49;100201.22;;;27.19;38.77
72961;BME280;61141;46.204;19.774;2023-07-31T10:46:57;100186.47;;;27.10;39.27
72961;BME280;61141;46.204;19.774;2023-07-31T10:50:19;100187.50;;;27.42;37.86
72961;BME280;61141;46.204;19.774;2023-07-31T10:53:31;100188.50;;;27.09;36.99
72961;BME280;61141;46.204;19.774;2023-07-31T10:56:37;100178.41;;;27.17;37.01
72961;BME280;61141;46.204;19.774;2023-07-31T10:59:42;100183.81;;;27.35;36.53
72961;BME280;61141;46.204;19.774;2023-07-31T11:02:56;100189.44;;;27.35;36.79
72961;BME280;61141;46.204;19.774;2023-07-31T11:06:01;100199.22;;;27.40;37.10
72961;BME280;61141;46.204;19.774;2023-07-31T11:09:13;100188.47;;;27.38;35.61
72961;BME280;61141;46.204;19.774;2023-07-31T11:12:17;100186.28;;;27.63;35.36
72961;BME280;61141;46.204;19.774;2023-07-31T11:15:20;100172.75;;;27.47;35.31
72961;BME280;61141;46.204;19.774;2023-07-31T11:18:24;100191.44;;;27.84;34.27
72961;BME280;61141;46.204;19.774;2023-07-31T11:21:27;100178.84;;;27.80;34.81
72961;BME280;61141;46.204;19.774;2023-07-31T11:24:31;100171.06;;;27.55;35.62
72961;BME280;61141;46.204;19.774;2023-07-31T11:27:39;100179.63;;;28.00;35.39
72961;BME280;61141;46.204;19.774;2023-07-31T11:30:44;100160.31;;;27.53;35.61
72961;BME280;61141;46.204;19.774;2023-07-31T11:33:48;100164.34;;;27.67;38.70
72961;BME280;61141;46.204;19.774;2023-07-31T11:36:54;100169.53;;;28.09;36.11
72961;BME280;61141;46.204;19.774;2023-07-31T11:40:01;100163.94;;;27.24;37.05
72961;BME280;61141;46.204;19.774;2023-07-31T11:43:04;100166.03;;;27.79;35.23
72961;BME280;61141;46.204;19.774;2023-07-31T11:46:07;100166.66;;;28.29;35.10
72961;BME280;61141;46.204;19.774;2023-07-31T11:49:10;100170.78;;;27.53;34.50
72961;BME280;61141;46.204;19.774;2023-07-31T11:52:13;100174.22;;;27.13;35.15
72961;BME280;61141;46.204;19.774;2023-07-31T11:55:17;100182.56;;;26.63;34.37
72961;BME280;61141;46.204;19.774;2023-07-31T11:58:21;100173.84;;;26.61;34.88
72961;BME280;61141;46.204;19.774;2023-07-31T12:01:26;100171.34;;;27.07;35.62
72961;BME280;61141;46.204;19.774;2023-07-31T12:04:31;100160.13;;;27.77;34.82
72961;BME280;61141;46.204;19.774;2023-07-31T12:08:08;100150.69;;;27.10;34.92
72961;BME280;61141;46.204;19.774;2023-07-31T12:11:11;100158.22;;;27.19;34.23
72961;BME280;61141;46.204;19.774;2023-07-31T12:14:26;100144.75;;;27.98;34.36
72961;BME280;61141;46.204;19.774;2023-07-31T12:17:29;100144.50;;;27.96;34.54
72961;BME280;61141;46.204;19.774;2023-07-31T12:20:32;100137.88;;;27.79;34.34
72961;BME280;61141;46.204;19.774;2023-07-31T12:23:36;100129.31;;;28.08;36.13
72961;BME280;61141;46.204;19.774;2023-07-31T12:26:39;100132.91;;;27.54;34.37
72961;BME280;61141;46.204;19.774;2023-07-31T12:29:43;100135.34;;;27.81;34.19
72961;BME280;61141;46.204;19.774;2023-07-31T12:32:47;100128.16;;;28.46;33.54
72961;BME280;61141;46.204;19.774;2023-07-31T12:35:50;100114.34;;;27.82;33.01
72961;BME280;61141;46.204;19.774;2023-07-31T12:38:54;100108.72;;;27.82;33.41
72961;BME280;61141;46.204;19.774;2023-07-31T12:41:58;100118.59;;;27.72;33.85
72961;BME280;61141;46.204;19.774;2023-07-31T12:45:02;100112.38;;;27.48;34.37
72961;BME280;61141;46.204;19.774;2023-07-31T12:48:06;100116.88;;;27.60;34.25
72961;BME280;61141;46.204;19.774;2023-07-31T12:51:09;100103.22;;;27.73;34.11
72961;BME280;61141;46.204;19.774;2023-07-31T12:54:12;100099.78;;;27.43;34.23
72961;BME280;61141;46.204;19.774;2023-07-31T12:57:15;100085.50;;;27.67;34.91
72961;BME280;61141;46.204;19.774;2023-07-31T13:00:18;100089.72;;;27.97;34.43
72961;BME280;61141;46.204;19.774;2023-07-31T13:03:21;100091.84;;;27.42;35.20
72961;BME280;61141;46.204;19.774;2023-07-31T13:06:25;100085.22;;;27.45;35.20
72961;BME280;61141;46.204;19.774;2023-07-31T13:09:28;100079.81;;;28.27;34.98
72961;BME280;61141;46.204;19.774;2023-07-31T13:12:31;100083.38;;;28.53;34.52
72961;BME280;61141;46.204;19.774;2023-07-31T13:15:34;100078.47;;;28.74;33.20
72961;BME280;61141;46.204;19.774;2023-07-31T13:18:37;100081.28;;;28.74;34.12
72961;BME280;61141;46.204;19.774;2023-07-31T13:21:39;100082.94;;;28.61;33.84
72961;BME280;61141;46.204;19.774;2023-07-31T13:24:42;100084.72;;;28.32;35.17
72961;BME280;61141;46.204;19.774;2023-07-31T13:27:45;100084.84;;;28.18;34.93
72961;BME280;61141;46.204;19.774;2023-07-31T13:30:48;100072.72;;;28.94;34.20
72961;BME280;61141;46.204;19.774;2023-07-31T13:33:51;100072.44;;;27.89;35.88
72961;BME280;61141;46.204;19.774;2023-07-31T13:36:54;100062.91;;;28.27;34.22
72961;BME280;61141;46.204;19.774;2023-07-31T13:39:58;100077.47;;;28.26;34.04
72961;BME280;61141;46.204;19.774;2023-07-31T13:43:01;100064.56;;;27.93;34.23
72961;BME280;61141;46.204;19.774;2023-07-31T13:46:04;100065.22;;;27.42;36.49
72961;BME280;61141;46.204;19.774;2023-07-31T13:49:10;100061.84;;;27.38;35.32
72961;BME280;61141;46.204;19.774;2023-07-31T13:52:12;100063.22;;;28.09;34.08
72961;BME280;61141;46.204;19.774;2023-07-31T13:55:15;100038.31;;;27.82;34.23
72961;BME280;61141;46.204;19.774;2023-07-31T13:58:18;100053.84;;;28.18;33.96
72961;BME280;61141;46.204;19.774;2023-07-31T14:01:21;100051.41;;;28.88;33.44
72961;BME280;61141;46.204;19.774;2023-07-31T14:04:24;100052.06;;;28.46;33.55
72961;BME280;61141;46.204;19.774;2023-07-31T14:07:27;100049.03;;;28.24;32.95
72961;BME280;61141;46.204;19.774;2023-07-31T14:10:30;100060.06;;;28.53;33.86
72961;BME280;61141;46.204;19.774;2023-07-31T14:13:32;100063.13;;;28.49;33.24
72961;BME280;61141;46.204;19.774;2023-07-31T14:16:36;100046.72;;;28.22;33.71
72961;BME280;61141;46.204;19.774;2023-07-31T14:19:39;100045.19;;;28.84;32.71
72961;BME280;61141;46.204;19.774;2023-07-31T14:22:42;100051.94;;;28.61;33.97
72961;BME280;61141;46.204;19.774;2023-07-31T14:25:46;100060.87;;;28.59;32.69
72961;BME280;61141;46.204;19.774;2023-07-31T14:28:49;100060.63;;;28.31;33.05
72961;BME280;61141;46.204;19.774;2023-07-31T14:31:51;100055.94;;;28.23;32.90
72961;BME280;61141;46.204;19.774;2023-07-31T14:34:55;100035.16;;;28.46;32.73
72961;BME280;61141;46.204;19.774;2023-07-31T14:37:58;100022.34;;;28.76;32.50
72961;BME280;61141;46.204;19.774;2023-07-31T14:41:01;100041.16;;;28.90;32.12
72961;BME280;61141;46.204;19.774;2023-07-31T14:44:03;100047.06;;;28.30;31.22
72961;BME280;61141;46.204;19.774;2023-07-31T14:47:06;100036.28;;;28.60;31.11
72961;BME280;61141;46.204;19.774;2023-07-31T14:50:09;100035.97;;;28.52;31.56
72961;BME280;61141;46.204;19.774;2023-07-31T14:53:12;100035.50;;;28.90;31.79
72961;BME280;61141;46.204;19.774;2023-07-31T14:56:15;100017.34;;;28.97;31.20
72961;BME280;61141;46.204;19.774;2023-07-31T14:59:18;100015.41;;;28.72;31.01
72961;BME280;61141;46.204;19.774;2023-07-31T15:02:20;100020.00;;;27.46;32.74
72961;BME280;61141;46.204;19.774;2023-07-31T15:05:24;100022.47;;;27.59;32.74
72961;BME280;61141;46.204;19.774;2023-07-31T15:08:26;100021.28;;;27.91;33.08
72961;BME280;61141;46.204;19.774;2023-07-31T15:11:29;100028.56;;;27.77;31.98
72961;BME280;61141;46.204;19.774;2023-07-31T15:14:32;100024.91;;;28.48;31.04
72961;BME280;61141;46.204;19.774;2023-07-31T15:17:37;100015.53;;;27.80;31.93
72961;BME280;61141;46.204;19.774;2023-07-31T15:20:40;100019.59;;;28.25;31.82
72961;BME280;61141;46.204;19.774;2023-07-31T15:23:43;100016.37;;;28.37;32.09
72961;BME280;61141;46.204;19.774;2023-07-31T15:26:45;100005.72;;;28.84;30.87
72961;BME280;61141;46.204;19.774;2023-07-31T15:29:49;99995.16;;;28.47;32.11
72961;BME280;61141;46.204;19.774;2023-07-31T15:32:54;100001.25;;;28.66;30.98
72961;BME280;61141;46.204;19.774;2023-07-31T15:35:57;100004.44;;;29.22;30.05
72961;BME280;61141;46.204;19.774;2023-07-31T15:39:00;100000.34;;;29.28;30.12
72961;BME280;61141;46.204;19.774;2023-07-31T15:42:03;99993.03;;;29.64;31.43
72961;BME280;61141;46.204;19.774;2023-07-31T15:45:07;99990.88;;;29.31;30.27
72961;BME280;61141;46.204;19.774;2023-07-31T15:48:10;99989.19;;;29.02;30.89
72961;BME280;61141;46.204;19.774;2023-07-31T15:51:13;99994.28;;;28.30;31.04
72961;BME280;61141;46.204;19.774;2023-07-31T15:54:16;99977.72;;;28.43;31.50
72961;BME280;61141;46.204;19.774;2023-07-31T15:57:19;99984.09;;;28.38;31.29
72961;BME280;61141;46.204;19.774;2023-07-31T16:00:22;99995.09;;;28.05;31.77
72961;BME280;61141;46.204;19.774;2023-07-31T16:03:25;99984.28;;;29.03;30.40